Time;durP1;ratioP1;P1;durP2;ratioP2;P2;SDS_P1;SDS_P2;PMS_P1;PMS_P2;Temp;Humidity;BMP_temperature;BMP_pressure;BME280_temperature;BME280_humidity;BME280_pressure;Samples;Min_cycle;Max_cycle;Signal;HPM_P1;HPM_P2
2023/04/05 00:01:28;;;;;;;1.95;0.93;;;18.80;52.50;;;;;;5015229;28;20117;-64
2023/04/05 00:03:54;;;;;;;2.08;1.20;;;18.80;52.40;;;;;;5022677;28;20037;-65
2023/04/05 00:06:27;;;;;;;1.30;1.10;;;18.80;52.40;;;;;;5022462;28;20034;-64
2023/04/05 00:08:54;;;;;;;3.03;1.40;;;18.80;52.40;;;;;;5020105;28;20120;-66
2023/04/05 00:11:21;;;;;;;1.80;1.27;;;18.80;52.60;;;;;;5022033;28;20041;-63
2023/04/05 00:13:47;;;;;;;2.35;0.98;;;18.80;52.60;;;;;;5019380;28;20065;-63
2023/04/05 00:16:12;;;;;;;1.80;0.93;;;18.80;52.60;;;;;;5017934;28;24859;-65
2023/04/05 00:18:38;;;;;;;1.75;1.10;;;18.80;52.60;;;;;;5019280;28;20026;-61
2023/04/05 00:21:04;;;;;;;2.35;1.23;;;18.80;52.60;;;;;;5018370;28;20033;-61
2023/04/05 00:23:36;;;;;;;2.33;1.38;;;18.80;52.60;;;;;;5014786;28;20040;-64
2023/04/05 00:26:01;;;;;;;1.23;1.00;;;18.80;52.50;;;;;;5014191;28;20037;-57
2023/04/05 00:28:27;;;;;;;1.33;1.10;;;18.70;52.40;;;;;;5022345;28;20378;-61
2023/04/05 00:30:52;;;;;;;0.98;0.90;;;18.70;52.50;;;;;;5021888;28;20030;-65
2023/04/05 00:33:18;;;;;;;1.77;1.10;;;18.70;52.40;;;;;;5024798;28;20446;-62
2023/04/05 00:35:43;;;;;;;0.85;0.85;;;18.80;52.50;;;;;;5020108;28;20034;-62
2023/04/05 00:38:09;;;;;;;1.98;1.20;;;18.80;52.40;;;;;;5017328;28;20087;-62
2023/04/05 00:40:35;;;;;;;1.70;1.00;;;18.70;52.50;;;;;;5018706;28;20647;-62
2023/04/05 00:43:00;;;;;;;1.40;1.10;;;18.70;52.40;;;;;;5020911;28;20030;-59
2023/04/05 00:45:26;;;;;;;1.52;1.10;;;18.70;52.30;;;;;;5019068;28;20570;-59
2023/04/05 00:47:51;;;;;;;1.83;0.98;;;18.70;52.40;;;;;;5021715;28;20034;-59
2023/04/05 00:50:17;;;;;;;1.80;1.10;;;18.70;52.20;;;;;;5021588;28;20037;-63
2023/04/05 00:52:42;;;;;;;1.45;1.00;;;18.70;52.30;;;;;;5020503;28;20128;-58
2023/04/05 00:55:09;;;;;;;2.35;1.35;;;18.70;52.10;;;;;;5016941;28;20037;-60
2023/04/05 00:57:37;;;;;;;1.58;1.00;;;18.70;52.90;;;;;;5014719;28;20045;-63
2023/04/05 01:00:09;;;;;;;1.25;1.00;;;18.70;52.10;;;;;;5023206;28;20081;-61
2023/04/05 01:02:45;;;;;;;1.75;1.17;;;18.70;52.20;;;;;;5024535;28;20021;-61
2023/04/05 01:05:35;;;;;;;2.00;1.10;;;18.70;52.10;;;;;;5017568;28;20088;-62
2023/04/05 01:08:39;;;;;;;1.08;0.80;;;18.70;52.10;;;;;;5016133;28;20030;-60
2023/04/05 01:11:05;;;;;;;1.08;0.82;;;18.80;52.10;;;;;;4973689;28;20035;-58
2023/04/05 01:13:31;;;;;;;1.25;1.02;;;18.70;52.00;;;;;;5015959;28;20064;-63
2023/04/05 01:15:57;;;;;;;2.25;1.08;;;18.70;51.90;;;;;;5018608;28;20056;-60
2023/04/05 01:18:24;;;;;;;1.00;0.88;;;18.80;51.90;;;;;;5018198;28;20038;-60
2023/04/05 01:21:41;;;;;;;2.20;1.30;;;18.80;52.10;;;;;;5021549;28;20118;-64
2023/04/05 01:24:24;;;;;;;3.75;1.00;;;18.80;52.00;;;;;;5013952;28;20045;-65
2023/04/05 01:27:10;;;;;;;2.80;1.20;;;18.80;52.00;;;;;;5018053;28;20097;-61
2023/04/05 01:29:45;;;;;;;2.08;1.15;;;18.80;52.10;;;;;;5019524;28;20063;-61
2023/04/05 01:32:21;;;;;;;2.38;1.23;;;18.70;52.00;;;;;;5020621;28;20370;-62
2023/04/05 01:35:12;;;;;;;2.30;1.00;;;18.80;51.90;;;;;;5021588;28;20120;-62
2023/04/05 01:37:38;;;;;;;1.88;1.40;;;18.80;52.00;;;;;;5015579;28;20049;-60
2023/04/05 01:40:05;;;;;;;2.10;1.20;;;18.70;51.80;;;;;;5018962;28;20065;-62
2023/04/05 01:42:30;;;;;;;3.20;1.38;;;18.70;51.90;;;;;;5018023;28;20532;-61
2023/04/05 01:44:57;;;;;;;2.25;1.45;;;18.70;51.90;;;;;;5016434;28;20047;-63
2023/04/05 01:47:22;;;;;;;2.17;1.10;;;18.70;51.90;;;;;;5017656;28;20447;-64
2023/04/05 01:49:48;;;;;;;1.80;1.08;;;18.70;51.80;;;;;;5011669;28;20022;-60
2023/04/05 01:52:13;;;;;;;1.42;1.10;;;18.70;51.70;;;;;;5021575;28;20137;-63
2023/04/05 01:54:39;;;;;;;1.05;0.90;;;18.70;51.60;;;;;;5011717;28;20030;-61
2023/04/05 01:57:05;;;;;;;1.33;1.10;;;18.70;51.80;;;;;;5013965;28;20030;-61
2023/04/05 01:59:30;;;;;;;4.03;1.40;;;18.70;51.80;;;;;;5018470;28;20025;-60
2023/04/05 02:01:56;;;;;;;1.33;1.10;;;18.70;51.80;;;;;;5019095;28;20041;-64
2023/04/05 02:04:21;;;;;;;3.38;1.23;;;18.70;51.80;;;;;;5020220;28;20041;-65
2023/04/05 02:06:47;;;;;;;1.95;0.80;;;18.70;51.80;;;;;;5016318;28;20026;-63
2023/04/05 02:09:12;;;;;;;1.30;1.10;;;18.70;51.80;;;;;;5017358;28;20064;-62
2023/04/05 02:11:38;;;;;;;2.78;1.35;;;18.60;51.90;;;;;;5016308;28;20026;-62
2023/04/05 02:14:03;;;;;;;3.40;1.33;;;18.60;52.10;;;;;;5016258;28;20038;-61
2023/04/05 02:16:32;;;;;;;1.33;0.90;;;18.60;52.20;;;;;;5017142;28;20599;-62
2023/04/05 02:18:58;;;;;;;1.60;1.10;;;18.60;52.00;;;;;;5016240;28;20026;-59
2023/04/05 02:21:24;;;;;;;1.63;1.20;;;18.60;51.90;;;;;;5017264;28;20148;-64
2023/04/05 02:23:50;;;;;;;2.67;1.30;;;18.50;52.00;;;;;;5014263;28;20367;-61
2023/04/05 02:26:16;;;;;;;1.80;1.20;;;18.50;52.30;;;;;;5013695;28;20374;-62
2023/04/05 02:28:41;;;;;;;1.20;1.10;;;18.50;52.30;;;;;;5021309;28;20033;-59
2023/04/05 02:31:11;;;;;;;1.65;1.23;;;18.40;52.00;;;;;;5019246;28;20029;-65
2023/04/05 02:33:38;;;;;;;3.35;0.80;;;18.40;52.20;;;;;;5019176;28;20044;-63
2023/04/05 02:36:05;;;;;;;2.00;1.50;;;18.40;52.10;;;;;;5034044;28;20030;-63
2023/04/05 02:38:31;;;;;;;1.10;0.90;;;18.40;52.10;;;;;;5018233;28;20064;-63
2023/04/05 02:40:57;;;;;;;1.67;1.10;;;18.30;52.30;;;;;;5016722;28;20037;-63
2023/04/05 02:43:22;;;;;;;2.70;1.35;;;18.30;52.10;;;;;;5018047;28;20083;-64
2023/04/05 02:45:48;;;;;;;1.85;1.23;;;18.30;52.20;;;;;;5015385;28;20104;-62
2023/04/05 02:48:13;;;;;;;1.77;1.17;;;18.30;52.40;;;;;;5015431;28;20510;-66
2023/04/05 02:50:39;;;;;;;1.40;1.02;;;18.30;52.30;;;;;;5018925;28;20041;-64
2023/04/05 02:53:04;;;;;;;1.20;1.10;;;18.40;52.50;;;;;;5015198;28;20377;-63
2023/04/05 02:55:32;;;;;;;1.88;1.35;;;18.40;52.20;;;;;;5012279;28;20030;-62
2023/04/05 02:58:01;;;;;;;1.52;1.30;;;18.50;51.90;;;;;;5032780;28;20022;-61
2023/04/05 03:00:27;;;;;;;1.67;1.20;;;18.60;51.60;;;;;;5025576;28;20045;-64
2023/04/05 03:02:53;;;;;;;1.20;0.85;;;18.70;51.50;;;;;;5022300;28;20054;-65
2023/04/05 03:05:19;;;;;;;2.05;1.40;;;18.80;51.50;;;;;;5020355;28;20084;-62
2023/04/05 03:07:45;;;;;;;1.33;1.10;;;18.80;51.30;;;;;;5022342;28;20050;-61
2023/04/05 03:10:12;;;;;;;2.03;1.42;;;18.90;51.30;;;;;;5021818;28;20029;-62
2023/04/05 03:12:38;;;;;;;2.15;1.42;;;19.00;51.30;;;;;;5023479;28;20504;-63
2023/04/05 03:15:05;;;;;;;1.27;0.95;;;19.10;51.20;;;;;;5023734;28;20053;-64
2023/04/05 03:17:31;;;;;;;1.63;1.10;;;19.10;51.00;;;;;;5020190;28;20029;-62
2023/04/05 03:19:56;;;;;;;1.42;1.13;;;19.20;50.90;;;;;;5018291;28;20033;-63
2023/04/05 03:22:21;;;;;;;1.13;0.90;;;19.20;50.80;;;;;;5027151;28;20487;-63
2023/04/05 03:24:47;;;;;;;2.20;1.00;;;19.30;50.70;;;;;;5025349;28;20030;-64
2023/04/05 03:27:13;;;;;;;1.95;0.85;;;19.40;50.60;;;;;;5020683;28;20022;-64
2023/04/05 03:29:41;;;;;;;1.30;1.10;;;19.40;50.50;;;;;;5024999;28;20125;-63
2023/04/05 03:32:10;;;;;;;1.88;1.13;;;19.40;50.50;;;;;;5022945;28;20042;-66
2023/04/05 03:34:37;;;;;;;1.35;0.95;;;19.50;50.40;;;;;;5021514;28;20650;-63
2023/04/05 03:37:03;;;;;;;3.10;1.20;;;19.60;50.30;;;;;;5019305;28;20021;-66
2023/04/05 03:39:28;;;;;;;1.05;0.80;;;19.60;50.30;;;;;;5019570;28;20033;-67
2023/04/05 03:41:55;;;;;;;1.95;0.90;;;19.60;50.20;;;;;;5020014;28;20663;-64
2023/04/05 03:44:21;;;;;;;1.90;1.42;;;19.60;50.40;;;;;;5040625;28;20033;-65
2023/04/05 03:46:46;;;;;;;2.30;1.10;;;19.60;50.20;;;;;;5037925;28;20028;-66
2023/04/05 03:49:12;;;;;;;1.30;1.00;;;19.60;50.40;;;;;;5023358;28;20033;-67
2023/04/05 03:51:37;;;;;;;1.20;0.90;;;19.60;50.30;;;;;;5023211;28;20067;-66
2023/04/05 03:54:03;;;;;;;1.20;1.00;;;19.60;50.50;;;;;;5022858;28;20072;-67
2023/04/05 03:56:28;;;;;;;2.42;1.25;;;19.60;50.50;;;;;;5024632;28;20026;-66
2023/04/05 03:58:54;;;;;;;1.30;0.98;;;19.60;50.60;;;;;;5026021;28;20120;-66
2023/04/05 04:01:20;;;;;;;1.73;1.13;;;19.60;50.80;;;;;;5039324;28;20057;-66
2023/04/05 04:03:46;;;;;;;1.40;1.00;;;19.60;50.80;;;;;;5041416;28;20069;-66
2023/04/05 04:06:12;;;;;;;3.47;1.40;;;19.50;50.90;;;;;;5032470;28;20087;-67
2023/04/05 04:08:38;;;;;;;3.38;1.20;;;19.50;51.00;;;;;;5019825;28;20045;-66
2023/04/05 04:11:05;;;;;;;1.60;1.15;;;19.50;51.00;;;;;;5020444;28;20064;-66
2023/04/05 04:13:30;;;;;;;1.65;1.00;;;19.40;51.10;;;;;;5019086;28;20045;-66
2023/04/05 04:15:56;;;;;;;1.75;1.10;;;19.40;51.20;;;;;;5022029;28;20552;-66
2023/04/05 04:18:21;;;;;;;1.90;1.10;;;19.40;51.10;;;;;;5025132;28;20033;-64
2023/04/05 04:20:47;;;;;;;1.35;1.00;;;19.40;51.20;;;;;;5017298;28;20076;-64
2023/04/05 04:23:13;;;;;;;1.80;0.98;;;19.40;51.20;;;;;;5017271;28;20799;-64
2023/04/05 04:25:40;;;;;;;0.98;0.80;;;19.40;51.40;;;;;;5019000;28;20033;-64
2023/04/05 04:28:06;;;;;;;2.20;1.80;;;19.30;51.30;;;;;;5020580;28;20030;-64
2023/04/05 04:30:33;;;;;;;4.85;2.17;;;19.30;51.30;;;;;;5022378;28;20412;-63
2023/04/05 04:33:03;;;;;;;4.20;2.35;;;19.30;51.40;;;;;;5018398;28;20041;-63
2023/04/05 04:35:30;;;;;;;3.55;2.63;;;19.30;51.50;;;;;;5016538;28;20117;-63
2023/04/05 04:38:00;;;;;;;4.65;2.83;;;19.20;51.50;;;;;;5018620;28;20248;-64
2023/04/05 04:40:40;;;;;;;5.05;2.80;;;19.20;51.60;;;;;;5017848;28;20037;-62
2023/04/05 04:43:15;;;;;;;6.20;3.08;;;19.20;51.60;;;;;;5022839;28;20560;-61
2023/04/05 04:45:41;;;;;;;;;;;19.20;51.60;;;;;;5017882;28;20040;-62
2023/04/05 04:48:07;;;;;;;6.65;3.72;;;19.20;51.80;;;;;;5011860;28;19916;-64
2023/04/05 04:50:33;;;;;;;4.68;3.42;;;19.20;51.70;;;;;;5016151;28;20038;-60
2023/04/05 04:52:59;;;;;;;5.15;3.65;;;19.20;51.90;;;;;;5019642;28;20041;-60
2023/04/05 04:55:25;;;;;;;5.78;3.83;;;19.20;51.70;;;;;;5021211;28;20034;-63
2023/04/05 04:57:54;;;;;;;6.10;3.53;;;19.30;51.90;;;;;;5032025;28;20558;-64
2023/04/05 05:00:21;;;;;;;8.05;3.80;;;19.30;51.90;;;;;;5016906;28;20029;-62
2023/04/05 05:02:47;;;;;;;8.07;3.83;;;19.30;51.90;;;;;;5020064;28;20034;-62
2023/04/05 05:05:13;;;;;;;10.43;4.63;;;19.30;52.00;;;;;;5018008;28;20563;-61
2023/04/05 05:07:42;;;;;;;7.18;3.67;;;19.30;52.10;;;;;;5016083;28;20041;-61
2023/04/05 05:10:14;;;;;;;8.65;4.47;;;19.30;52.10;;;;;;5017749;28;20041;-63
2023/04/05 05:12:40;;;;;;;7.90;3.90;;;19.30;52.20;;;;;;5017977;28;20540;-63
2023/04/05 05:15:07;;;;;;;4.85;3.90;;;19.30;52.20;;;;;;5021174;28;20061;-62
2023/04/05 05:17:34;;;;;;;7.35;3.10;;;19.20;52.20;;;;;;5008690;28;20168;-62
2023/04/05 05:19:59;;;;;;;7.55;3.58;;;19.20;52.30;;;;;;5014374;28;20029;-63
2023/04/05 05:22:26;;;;;;;8.52;3.63;;;19.20;52.30;;;;;;5019666;28;20034;-61
2023/04/05 05:24:52;;;;;;;8.48;3.33;;;19.20;52.20;;;;;;5025706;28;20060;-61
2023/04/05 05:27:17;;;;;;;10.25;3.70;;;19.20;52.30;;;;;;5018395;28;20049;-57
2023/04/05 05:29:43;;;;;;;8.75;3.70;;;19.20;52.30;;;;;;5016441;28;20053;-56
2023/04/05 05:32:13;;;;;;;6.60;3.47;;;19.20;52.20;;;;;;5019451;28;20435;-59
2023/04/05 05:34:39;;;;;;;6.43;3.17;;;19.20;52.20;;;;;;5015761;28;20034;-60
2023/04/05 05:37:04;;;;;;;6.80;3.17;;;19.20;52.30;;;;;;5015956;28;20026;-57
2023/04/05 05:39:30;;;;;;;6.00;3.00;;;19.20;52.30;;;;;;5020283;28;20099;-58
2023/04/05 05:41:55;;;;;;;5.85;3.50;;;19.20;52.30;;;;;;5016889;28;20209;-61
2023/04/05 05:44:21;;;;;;;7.57;3.33;;;19.20;52.40;;;;;;5018279;28;20045;-61
2023/04/05 05:46:46;;;;;;;10.57;3.30;;;19.10;52.40;;;;;;5012940;28;20148;-62
2023/04/05 05:49:12;;;;;;;6.43;3.15;;;19.10;52.50;;;;;;5016465;28;20049;-58
2023/04/05 05:51:37;;;;;;;7.43;3.05;;;19.10;52.50;;;;;;5016339;28;20041;-58
2023/04/05 05:54:03;;;;;;;8.32;3.03;;;19.10;52.30;;;;;;5017167;28;20033;-59
2023/04/05 05:56:28;;;;;;;9.05;3.00;;;19.10;52.40;;;;;;5021346;28;20459;-59
2023/04/05 05:58:54;;;;;;;5.45;3.30;;;19.10;52.90;;;;;;5021565;28;20022;-61
2023/04/05 06:01:21;;;;;;;5.97;3.58;;;19.10;52.50;;;;;;5016846;28;20511;-63
2023/04/05 06:03:48;;;;;;;5.00;2.65;;;19.10;52.30;;;;;;5017414;28;20034;-62
2023/04/05 06:06:13;;;;;;;8.00;2.90;;;19.10;52.30;;;;;;5018217;28;20026;-63
2023/04/05 06:08:39;;;;;;;5.97;2.95;;;19.10;52.20;;;;;;5016795;28;20041;-59
2023/04/05 06:11:05;;;;;;;7.72;3.08;;;19.10;52.10;;;;;;5015931;28;20033;-61
2023/04/05 06:13:30;;;;;;;8.90;3.30;;;19.10;52.10;;;;;;5020886;28;20056;-61
2023/04/05 06:15:56;;;;;;;5.15;3.15;;;19.10;52.10;;;;;;5011903;28;20033;-62
2023/04/05 06:18:21;;;;;;;8.63;3.38;;;19.10;52.20;;;;;;5013806;28;20033;-61
2023/04/05 06:20:47;;;;;;;7.57;3.55;;;19.10;52.20;;;;;;5013849;28;20049;-61
2023/04/05 06:23:12;;;;;;;6.53;2.80;;;19.10;52.20;;;;;;5014283;28;20022;-61
2023/04/05 06:25:39;;;;;;;9.20;4.25;;;19.10;52.10;;;;;;5020333;28;20315;-59
2023/04/05 06:28:06;;;;;;;7.78;3.50;;;19.10;52.20;;;;;;5016307;28;20096;-61
2023/04/05 06:30:32;;;;;;;7.15;3.20;;;19.10;52.30;;;;;;5014304;28;20037;-61
2023/04/05 06:32:58;;;;;;;6.53;2.95;;;19.10;52.30;;;;;;5017391;28;20041;-61
2023/04/05 06:35:24;;;;;;;4.50;2.92;;;19.10;52.10;;;;;;5013732;28;20534;-61
2023/04/05 06:37:50;;;;;;;5.28;2.72;;;19.10;52.20;;;;;;5018877;28;20088;-61
2023/04/05 06:40:16;;;;;;;4.53;3.08;;;19.00;52.10;;;;;;5018492;28;20231;-60
2023/04/05 06:42:42;;;;;;;4.82;2.78;;;19.00;52.20;;;;;;5018128;28;20294;-62
2023/04/05 06:45:08;;;;;;;8.93;3.13;;;19.00;52.10;;;;;;5018895;28;20105;-65
2023/04/05 06:47:35;;;;;;;9.43;3.13;;;19.00;52.00;;;;;;5014092;28;20029;-64
2023/04/05 06:50:01;;;;;;;8.00;4.13;;;19.00;52.00;;;;;;5020940;28;20104;-64
2023/04/05 06:52:27;;;;;;;8.02;3.55;;;19.00;52.30;;;;;;5013908;28;20481;-64
2023/04/05 06:54:53;;;;;;;7.25;4.00;;;19.00;52.20;;;;;;5015979;28;20156;-61
2023/04/05 06:57:19;;;;;;;9.23;3.83;;;19.00;52.30;;;;;;5010588;28;20124;-63
2023/04/05 06:59:44;;;;;;;6.35;4.18;;;19.10;52.50;;;;;;5007629;28;20037;-64
2023/04/05 07:02:10;;;;;;;9.10;4.63;;;19.10;52.40;;;;;;5017825;28;20025;-64
2023/04/05 07:04:36;;;;;;;9.25;4.82;;;19.10;52.40;;;;;;5011578;28;20504;-64
2023/04/05 07:07:02;;;;;;;8.77;4.03;;;19.10;52.50;;;;;;5008837;28;20165;-60
2023/04/05 07:09:31;;;;;;;7.05;3.80;;;19.10;52.60;;;;;;5018364;28;20131;-64
2023/04/05 07:11:57;;;;;;;8.00;4.00;;;19.10;52.60;;;;;;5016057;28;20026;-63
2023/04/05 07:14:23;;;;;;;7.10;3.65;;;19.10;52.50;;;;;;5018320;28;20041;-64
2023/04/05 07:16:48;;;;;;;5.80;3.15;;;19.10;52.30;;;;;;5011527;28;20088;-64
2023/04/05 07:19:14;;;;;;;6.82;3.22;;;19.10;52.50;;;;;;5017472;28;20415;-64
2023/04/05 07:21:39;;;;;;;5.68;3.17;;;19.10;52.30;;;;;;5025409;28;20113;-66
2023/04/05 07:24:05;;;;;;;5.60;3.35;;;19.00;52.10;;;;;;5017005;28;20045;-59
2023/04/05 07:26:34;;;;;;;7.85;3.55;;;19.00;52.10;;;;;;5016365;28;20038;-64
2023/04/05 07:29:00;;;;;;;9.85;3.70;;;19.00;52.20;;;;;;5017796;28;20091;-60
2023/04/05 07:31:26;;;;;;;6.57;2.88;;;18.90;52.10;;;;;;5014631;28;20575;-63
2023/04/05 07:33:52;;;;;;;6.88;2.72;;;18.90;52.20;;;;;;5016097;28;20052;-61
2023/04/05 07:36:17;;;;;;;6.57;2.78;;;18.90;52.10;;;;;;5016026;28;20117;-61
2023/04/05 07:38:43;;;;;;;5.90;2.80;;;18.90;52.00;;;;;;5017481;28;20485;-64
2023/04/05 07:41:10;;;;;;;5.75;2.83;;;18.90;51.90;;;;;;5013639;28;20053;-65
2023/04/05 07:43:35;;;;;;;5.53;2.42;;;18.90;52.20;;;;;;5014356;28;20157;-64
2023/04/05 07:46:02;;;;;;;5.03;2.47;;;18.90;51.90;;;;;;5019109;28;20614;-61
2023/04/05 07:48:28;;;;;;;8.30;4.00;;;18.90;52.10;;;;;;5025234;28;20120;-64
2023/04/05 07:50:54;;;;;;;4.55;2.35;;;18.90;52.10;;;;;;5022226;28;20112;-64
2023/04/05 07:53:19;;;;;;;4.40;2.60;;;18.90;52.10;;;;;;5020770;28;20088;-64
2023/04/05 07:55:45;;;;;;;5.00;2.30;;;18.90;51.90;;;;;;5018891;28;20448;-61
2023/04/05 07:58:11;;;;;;;6.07;2.78;;;18.90;52.00;;;;;;5022073;28;20106;-65
2023/04/05 08:00:36;;;;;;;3.38;2.58;;;18.80;51.90;;;;;;5022969;28;20473;-64
2023/04/05 08:03:03;;;;;;;4.35;2.58;;;18.90;52.00;;;;;;5019035;28;20040;-61
2023/04/05 08:05:29;;;;;;;4.18;2.58;;;18.90;52.00;;;;;;5018879;28;20267;-64
2023/04/05 08:07:56;;;;;;;3.58;2.33;;;18.90;52.00;;;;;;5017566;28;20037;-64
2023/04/05 08:10:22;;;;;;;3.58;2.42;;;18.90;51.90;;;;;;5020058;28;20021;-60
2023/04/05 08:12:48;;;;;;;3.80;2.00;;;18.90;52.00;;;;;;5016384;28;20051;-63
2023/04/05 08:15:13;;;;;;;5.47;2.45;;;18.90;51.90;;;;;;5018723;28;20040;-60
2023/04/05 08:17:39;;;;;;;2.78;2.10;;;18.90;52.00;;;;;;5023702;28;20040;-64
2023/04/05 08:20:06;;;;;;;4.78;2.60;;;18.90;52.00;;;;;;5020705;28;20041;-60
2023/04/05 08:22:31;;;;;;;3.50;2.13;;;18.90;52.00;;;;;;5021253;28;20509;-64
2023/04/05 08:24:57;;;;;;;3.28;2.05;;;18.90;52.00;;;;;;5019527;28;20060;-61
2023/04/05 08:27:22;;;;;;;5.40;2.45;;;18.90;51.80;;;;;;5012330;28;20037;-65
2023/04/05 08:29:48;;;;;;;3.28;1.95;;;18.90;51.80;;;;;;5020971;28;20064;-64
2023/04/05 08:32:13;;;;;;;3.38;2.08;;;19.00;51.80;;;;;;5017919;28;20139;-61
2023/04/05 08:34:39;;;;;;;3.05;2.28;;;19.00;51.80;;;;;;5018457;28;20058;-57
2023/04/05 08:37:04;;;;;;;4.18;2.25;;;19.00;51.70;;;;;;5021076;28;20037;-64
2023/04/05 08:39:32;;;;;;;3.00;2.22;;;19.00;51.70;;;;;;5015290;28;20040;-67
2023/04/05 08:42:22;;;;;;;3.38;1.67;;;19.00;51.70;;;;;;5018442;28;20037;-64
2023/04/05 08:44:51;;;;;;;4.05;1.92;;;19.00;51.80;;;;;;5020286;28;20044;-61
2023/04/05 08:47:18;;;;;;;3.13;1.83;;;19.00;51.80;;;;;;5016970;28;20029;-65
2023/04/05 08:49:44;;;;;;;4.72;2.30;;;19.10;51.80;;;;;;5018793;28;20038;-64
2023/04/05 08:52:10;;;;;;;3.58;1.70;;;19.10;51.80;;;;;;5019060;28;20037;-64
2023/04/05 08:54:36;;;;;;;3.65;2.30;;;19.10;51.70;;;;;;5014267;28;20425;-65
2023/04/05 08:57:04;;;;;;;3.20;1.98;;;19.10;51.70;;;;;;5011950;28;20038;-61
2023/04/05 08:59:34;;;;;;;2.95;1.80;;;19.10;51.70;;;;;;5013368;28;20029;-64
2023/04/05 09:02:02;;;;;;;2.75;1.70;;;19.10;51.70;;;;;;5009872;28;20037;-64
2023/04/05 09:04:30;;;;;;;2.88;1.88;;;19.10;51.70;;;;;;5022948;28;20037;-65
2023/04/05 09:06:58;;;;;;;2.63;1.42;;;19.10;51.60;;;;;;5009982;28;20112;-64
2023/04/05 09:09:24;;;;;;;2.17;1.50;;;19.10;51.60;;;;;;5021495;28;20059;-64
2023/04/05 09:11:50;;;;;;;2.63;1.83;;;19.20;51.60;;;;;;5020498;28;20044;-63
2023/04/05 09:14:17;;;;;;;2.25;1.55;;;19.20;51.50;;;;;;5016677;28;20033;-64
2023/04/05 09:16:43;;;;;;;2.47;1.67;;;19.20;51.50;;;;;;5017431;28;20444;-66
2023/04/05 09:19:10;;;;;;;3.45;1.40;;;19.20;51.50;;;;;;5016643;28;20025;-65
2023/04/05 09:22:05;;;;;;;4.78;1.88;;;19.20;51.60;;;;;;5017588;28;20037;-67
2023/04/05 09:24:35;;;;;;;2.97;1.40;;;19.20;51.60;;;;;;4998627;28;20304;-65
2023/04/05 09:27:17;;;;;;;2.45;1.75;;;19.20;51.70;;;;;;5020229;28;20504;-64
2023/04/05 09:29:48;;;;;;;1.85;1.48;;;19.30;51.80;;;;;;5018321;28;20536;-65
2023/04/05 09:32:14;;;;;;;3.13;1.42;;;19.40;51.90;;;;;;5038548;28;20330;-63
2023/04/05 09:34:41;;;;;;;2.92;1.50;;;19.40;51.90;;;;;;5016977;28;20038;-62
2023/04/05 09:37:18;;;;;;;4.18;1.48;;;19.40;51.80;;;;;;5031281;28;20025;-64
2023/04/05 09:39:45;;;;;;;1.50;1.10;;;19.40;51.70;;;;;;5034038;28;20045;-64
2023/04/05 09:42:13;;;;;;;2.42;1.77;;;19.40;51.90;;;;;;5020269;28;20131;-65
2023/04/05 09:45:03;;;;;;;3.83;1.52;;;19.50;51.80;;;;;;5030539;28;20037;-65
2023/04/05 09:47:31;;;;;;;3.60;1.40;;;19.50;51.80;;;;;;5018864;28;20029;-65
2023/04/05 09:50:01;;;;;;;2.03;1.17;;;19.50;51.70;;;;;;5028122;28;20076;-65
2023/04/05 09:52:30;;;;;;;1.85;1.20;;;19.50;51.70;;;;;;5017843;28;20034;-65
2023/04/05 09:54:58;;;;;;;2.72;1.52;;;19.50;51.60;;;;;;5025558;28;20450;-65
2023/04/05 09:57:26;;;;;;;1.58;1.23;;;19.50;51.70;;;;;;4986288;28;20044;-63
2023/04/05 09:59:52;;;;;;;1.77;1.33;;;19.50;51.70;;;;;;5029796;28;20026;-62
2023/04/05 10:02:19;;;;;;;2.97;1.33;;;19.50;51.70;;;;;;5010652;28;20021;-64
2023/04/05 10:04:47;;;;;;;2.08;1.27;;;19.50;51.70;;;;;;5020641;28;20042;-65
2023/04/05 10:07:14;;;;;;;2.70;1.02;;;19.50;51.60;;;;;;5015614;28;20536;-65
2023/04/05 10:09:41;;;;;;;3.05;1.33;;;19.50;51.50;;;;;;5015544;28;20113;-65
2023/04/05 10:12:08;;;;;;;1.58;1.23;;;19.50;51.60;;;;;;5019660;28;20045;-64
2023/04/05 10:14:36;;;;;;;3.05;1.20;;;19.50;51.60;;;;;;5014115;28;20041;-65
2023/04/05 10:17:13;;;;;;;1.45;1.00;;;19.40;51.70;;;;;;5014096;28;20036;-65
2023/04/05 10:19:57;;;;;;;1.38;1.10;;;19.40;51.60;;;;;;5016449;28;20452;-64
2023/04/05 10:22:31;;;;;;;1.75;1.20;;;19.40;51.60;;;;;;5010246;28;20029;-65
2023/04/05 10:25:26;;;;;;;2.45;1.25;;;19.40;51.70;;;;;;4996835;28;20045;-64
2023/04/05 10:27:56;;;;;;;1.92;1.00;;;19.40;51.70;;;;;;5020172;28;21481;-65
2023/04/05 10:30:24;;;;;;;2.25;1.13;;;19.40;51.70;;;;;;5018201;28;20048;-65
2023/04/05 10:33:00;;;;;;;2.67;1.05;;;19.40;51.80;;;;;;5016458;28;20472;-64
2023/04/05 10:36:03;;;;;;;3.88;1.20;;;19.40;51.80;;;;;;5036724;28;20684;-65
2023/04/05 10:38:45;;;;;;;2.72;1.52;;;19.40;51.90;;;;;;5035509;28;20021;-63
2023/04/05 10:41:14;;;;;;;1.55;1.00;;;19.40;51.90;;;;;;5014905;28;20104;-63
2023/04/05 10:43:40;;;;;;;1.60;0.80;;;19.40;52.10;;;;;;5017522;28;20057;-64
2023/04/05 10:46:07;;;;;;;3.88;1.60;;;19.40;52.10;;;;;;5017019;28;20407;-63
2023/04/05 10:49:00;;;;;;;2.22;1.17;;;19.50;52.20;;;;;;5013981;28;20026;-64
2023/04/05 10:51:28;;;;;;;1.77;0.90;;;19.40;52.20;;;;;;5016453;28;20575;-66
2023/04/05 10:53:55;;;;;;;3.42;1.17;;;19.40;52.30;;;;;;5015680;28;20038;-63
2023/04/05 10:56:22;;;;;;;2.08;0.90;;;19.40;52.30;;;;;;5015636;28;20045;-65
2023/04/05 10:58:49;;;;;;;3.20;1.20;;;19.40;52.40;;;;;;5021485;28;20030;-64
2023/04/05 11:01:16;;;;;;;1.45;1.20;;;19.40;52.50;;;;;;5018491;28;20111;-64
2023/04/05 11:03:50;;;;;;;3.33;0.95;;;19.40;52.50;;;;;;5010177;28;20033;-63
2023/04/05 11:06:22;;;;;;;3.30;1.40;;;19.40;52.50;;;;;;5019578;28;20033;-64
2023/04/05 11:08:51;;;;;;;1.90;0.95;;;19.40;52.60;;;;;;5014852;28;20084;-66
2023/04/05 11:11:18;;;;;;;2.88;2.08;;;19.40;52.60;;;;;;5013659;28;20428;-66
2023/04/05 11:13:52;;;;;;;11.70;10.50;;;19.40;52.60;;;;;;5014187;28;20191;-62
2023/04/05 11:16:17;;;;;;;31.38;25.63;;;19.40;52.70;;;;;;5013200;28;20043;-62
2023/04/05 11:18:46;;;;;;;43.63;34.72;;;19.40;52.70;;;;;;5012970;28;20030;-64
2023/04/05 11:21:22;;;;;;;47.58;39.90;;;19.40;52.70;;;;;;5018573;28;20053;-62
2023/04/05 11:24:08;;;;;;;50.92;41.65;;;19.40;52.70;;;;;;5013092;28;20461;-62
2023/04/05 11:26:39;;;;;;;49.22;40.53;;;19.30;52.80;;;;;;5017845;28;20029;-65
2023/04/05 11:29:05;;;;;;;49.22;40.08;;;19.40;52.90;;;;;;5020644;28;20037;-62
2023/04/05 11:31:31;;;;;;;50.40;39.05;;;19.30;52.90;;;;;;5019850;28;20044;-58
2023/04/05 11:34:10;;;;;;;41.97;35.28;;;19.30;53.00;;;;;;5019932;28;20044;-64
2023/04/05 11:36:38;;;;;;;40.58;32.42;;;19.30;53.00;;;;;;5019197;28;20042;-61
2023/04/05 11:39:21;;;;;;;38.35;30.23;;;19.30;53.00;;;;;;5024318;28;20033;-61
2023/04/05 11:42:13;;;;;;;36.10;27.95;;;19.30;53.00;;;;;;5022353;28;20648;-63
2023/04/05 11:44:47;;;;;;;32.33;23.98;;;19.30;53.10;;;;;;5023603;28;20046;-64
2023/04/05 11:47:15;;;;;;;34.20;25.98;;;19.30;53.10;;;;;;5016666;28;20576;-61
2023/04/05 11:49:41;;;;;;;30.92;22.70;;;19.30;53.20;;;;;;5021435;28;20121;-64
2023/04/05 11:52:15;;;;;;;29.10;22.50;;;19.30;53.20;;;;;;5016329;28;20048;-64
2023/04/05 11:54:45;;;;;;;23.65;18.85;;;19.30;53.20;;;;;;5020318;28;20037;-64
2023/04/05 11:57:21;;;;;;;23.05;18.45;;;19.30;53.20;;;;;;5020546;28;20025;-64
2023/04/05 11:59:50;;;;;;;21.67;17.75;;;19.30;53.20;;;;;;5020171;28;20042;-64
2023/04/05 12:02:16;;;;;;;18.95;15.95;;;19.30;53.30;;;;;;5020888;28;20795;-64
2023/04/05 12:04:41;;;;;;;20.02;15.27;;;19.30;53.30;;;;;;5021695;28;20152;-63
2023/04/05 12:07:17;;;;;;;18.77;13.82;;;19.30;53.30;;;;;;5017205;28;20132;-64
2023/04/05 12:10:04;;;;;;;17.65;12.85;;;19.30;53.30;;;;;;5017481;28;20034;-64
2023/04/05 12:12:35;;;;;;;16.92;13.15;;;19.30;53.30;;;;;;4993617;28;20038;-63
2023/04/05 12:15:02;;;;;;;15.88;11.85;;;19.30;53.30;;;;;;5020221;28;20056;-62
2023/04/05 12:17:37;;;;;;;16.83;11.40;;;19.30;53.30;;;;;;5015508;28;20028;-64
2023/04/05 12:20:03;;;;;;;12.98;10.30;;;19.30;53.30;;;;;;5018187;28;20026;-64
2023/04/05 12:22:29;;;;;;;13.02;10.30;;;19.30;53.30;;;;;;5014980;28;20129;-66
2023/04/05 12:24:54;;;;;;;13.63;9.82;;;19.30;53.30;;;;;;5016168;28;20117;-64
2023/04/05 12:27:20;;;;;;;11.35;9.18;;;19.30;53.30;;;;;;5018830;28;20447;-60
2023/04/05 12:30:07;;;;;;;14.32;8.82;;;19.30;53.40;;;;;;5020743;28;20084;-64
2023/04/05 12:32:40;;;;;;;10.20;7.55;;;19.30;53.40;;;;;;5020482;28;20195;-61
2023/04/05 12:35:15;;;;;;;9.85;7.70;;;19.30;53.30;;;;;;5021177;28;20040;-64
2023/04/05 12:37:40;;;;;;;8.82;6.80;;;19.30;53.40;;;;;;5015494;28;20040;-63
2023/04/05 12:40:06;;;;;;;9.50;6.68;;;19.30;53.30;;;;;;5019756;28;20018;-62
2023/04/05 12:42:36;;;;;;;10.13;5.85;;;19.30;53.30;;;;;;5018092;28;20070;-58
2023/04/05 12:45:06;;;;;;;8.13;6.68;;;19.30;53.40;;;;;;5018745;28;20576;-64
2023/04/05 12:47:34;;;;;;;8.40;6.65;;;19.30;53.40;;;;;;5010337;28;20037;-64
2023/04/05 12:50:10;;;;;;;9.07;5.35;;;19.30;53.40;;;;;;5016898;28;20064;-64
2023/04/05 12:52:36;;;;;;;8.38;5.47;;;19.30;53.40;;;;;;5010751;28;20034;-65